createdAt,value
2018-10-04T00:00:53.026Z,4.30
2018-10-04T00:01:53.008Z,6.30
2018-10-04T00:02:52.983Z,4.90
2018-10-04T00:03:52.969Z,4.10
2018-10-04T00:04:52.945Z,4.40
2018-10-04T00:05:52.926Z,4.60
2018-10-04T00:06:52.902Z,4.20
2018-10-04T00:07:52.880Z,4.80
2018-10-04T00:08:52.865Z,4.60
2018-10-04T00:09:52.848Z,5.30
2018-10-04T00:10:52.828Z,4.00
2018-10-04T00:11:52.801Z,4.60
2018-10-04T00:12:52.834Z,4.60
2018-10-04T00:13:52.765Z,5.40
2018-10-04T00:14:52.742Z,3.20
2018-10-04T00:15:52.721Z,3.70
2018-10-04T00:16:52.700Z,4.90
2018-10-04T00:17:52.682Z,4.80
2018-10-04T00:18:52.659Z,4.20
2018-10-04T00:19:52.640Z,4.90
2018-10-04T00:20:52.622Z,3.60
2018-10-04T00:21:52.598Z,4.50
2018-10-04T00:22:52.578Z,3.70
2018-10-04T00:23:52.559Z,5.00
2018-10-04T00:24:52.547Z,4.80
2018-10-04T00:25:52.531Z,4.80
2018-10-04T00:26:52.498Z,4.90
2018-10-04T00:27:52.475Z,3.10
2018-10-04T00:28:52.456Z,3.70
2018-10-04T00:29:52.439Z,4.30
2018-10-04T00:30:52.416Z,3.80
2018-10-04T00:31:52.396Z,5.70
2018-10-04T00:32:52.376Z,6.50
2018-10-04T00:33:52.356Z,3.60
2018-10-04T00:34:52.336Z,3.90
2018-10-04T00:35:52.320Z,3.50
2018-10-04T00:36:52.296Z,3.70
2018-10-04T00:37:52.274Z,4.20
2018-10-04T00:38:52.253Z,3.40
2018-10-04T00:39:52.232Z,4.80
2018-10-04T00:40:52.214Z,3.90
2018-10-04T00:41:52.194Z,4.80
2018-10-04T00:42:52.170Z,5.10
2018-10-04T00:43:52.153Z,3.10
2018-10-04T00:44:52.136Z,5.60
2018-10-04T00:45:52.131Z,4.30
2018-10-04T00:46:52.094Z,3.50
2018-10-04T00:47:52.077Z,3.20
2018-10-04T00:48:52.052Z,3.50
2018-10-04T00:49:52.031Z,3.90
2018-10-04T00:50:52.011Z,4.40
2018-10-04T00:51:51.988Z,4.10
2018-10-04T00:52:51.969Z,4.00
2018-10-04T00:53:51.946Z,3.60
2018-10-04T00:54:51.930Z,4.90
2018-10-04T00:55:51.915Z,4.60
2018-10-04T00:56:51.892Z,4.10
2018-10-04T00:57:51.870Z,4.70
2018-10-04T00:58:51.847Z,4.00
2018-10-04T00:59:51.826Z,3.70
2018-10-04T01:00:51.809Z,3.70
2018-10-04T01:01:51.788Z,3.80
2018-10-04T01:02:51.762Z,3.90
2018-10-04T01:03:51.747Z,3.70
2018-10-04T01:04:51.723Z,6.50
2018-10-04T01:05:51.708Z,3.60
2018-10-04T01:06:51.682Z,5.40
2018-10-04T01:07:51.664Z,4.10
2018-10-04T01:08:51.644Z,5.20
2018-10-04T01:09:51.625Z,4.00
2018-10-04T01:10:51.603Z,3.90
2018-10-04T01:11:51.580Z,4.80
2018-10-04T01:12:51.560Z,6.40
2018-10-04T01:13:51.546Z,3.40
2018-10-04T01:14:51.521Z,4.30
2018-10-04T01:15:51.504Z,3.60
2018-10-04T01:16:51.482Z,2.70
2018-10-04T01:17:51.458Z,3.20
2018-10-04T01:18:51.440Z,4.40
2018-10-04T01:19:51.423Z,4.70
2018-10-04T01:20:51.402Z,4.70
2018-10-04T01:21:51.377Z,5.20
2018-10-04T01:22:51.355Z,4.10
2018-10-04T01:23:51.338Z,4.50
2018-10-04T01:24:51.319Z,5.80
2018-10-04T01:25:51.298Z,4.10
2018-10-04T01:26:51.279Z,4.00
2018-10-04T01:27:51.260Z,4.60
2018-10-04T01:28:51.237Z,3.80
2018-10-04T01:29:51.216Z,5.00
2018-10-04T01:30:51.198Z,4.50
2018-10-04T01:31:51.176Z,4.20
2018-10-04T01:32:51.157Z,4.00
2018-10-04T01:33:51.140Z,2.20
2018-10-04T01:34:51.112Z,4.00
2018-10-04T01:35:51.100Z,2.40
2018-10-04T01:36:51.083Z,4.50
2018-10-04T01:37:51.060Z,3.10
2018-10-04T01:38:51.026Z,2.70
2018-10-04T01:39:51.014Z,1.80
2018-10-04T01:40:50.988Z,2.70
2018-10-04T01:41:50.965Z,3.00
2018-10-04T01:42:50.944Z,3.10
2018-10-04T01:43:50.925Z,3.50
2018-10-04T01:44:50.907Z,2.80
2018-10-04T01:45:50.885Z,3.70
2018-10-04T01:46:50.867Z,2.90
2018-10-04T01:47:50.846Z,3.90
2018-10-04T01:48:50.828Z,2.90
2018-10-04T01:49:50.804Z,2.40
2018-10-04T01:50:50.780Z,2.60
2018-10-04T01:51:50.755Z,3.60
2018-10-04T01:52:50.740Z,3.00
2018-10-04T01:53:50.723Z,2.70
2018-10-04T01:54:50.698Z,4.30
2018-10-04T01:55:50.678Z,2.30
2018-10-04T01:56:50.659Z,3.00
2018-10-04T01:57:50.641Z,2.50
2018-10-04T01:58:50.618Z,2.00
2018-10-04T01:59:50.593Z,3.40
2018-10-04T02:00:50.581Z,2.80
2018-10-04T02:01:50.556Z,2.30
2018-10-04T02:02:50.587Z,3.20
2018-10-04T02:03:50.512Z,5.10
2018-10-04T02:04:50.491Z,3.20
2018-10-04T02:05:50.473Z,3.40
2018-10-04T02:06:50.448Z,3.80
2018-10-04T02:07:50.436Z,2.80
2018-10-04T02:08:50.409Z,3.30
2018-10-04T02:09:50.390Z,3.70
2018-10-04T02:10:50.368Z,2.50
2018-10-04T02:11:50.376Z,2.90
2018-10-04T02:12:50.325Z,2.40
2018-10-04T02:13:50.308Z,3.00
2018-10-04T02:14:50.284Z,3.10
2018-10-04T02:15:50.262Z,1.90
2018-10-04T02:16:50.239Z,2.60
2018-10-04T02:17:50.224Z,2.50
2018-10-04T02:18:50.196Z,2.90
2018-10-04T02:19:50.180Z,2.50
2018-10-04T02:20:50.154Z,2.70
2018-10-04T02:21:50.139Z,2.90
2018-10-04T02:22:50.116Z,3.90
2018-10-04T02:23:50.096Z,4.10
2018-10-04T02:24:50.075Z,4.00
2018-10-04T02:25:50.054Z,2.90
2018-10-04T02:26:50.030Z,2.80
2018-10-04T02:27:50.014Z,3.70
2018-10-04T02:28:49.992Z,2.20
2018-10-04T02:29:49.971Z,3.20
2018-10-04T02:30:49.944Z,2.90
2018-10-04T02:31:49.927Z,2.70
2018-10-04T02:32:49.910Z,4.60
2018-10-04T02:33:49.886Z,2.70
2018-10-04T02:34:49.862Z,2.80
2018-10-04T02:35:49.847Z,2.80
2018-10-04T02:36:49.838Z,2.40
2018-10-04T02:37:49.814Z,2.50
2018-10-04T02:38:49.782Z,1.60
2018-10-04T02:39:49.758Z,2.40
2018-10-04T02:40:49.738Z,2.70
2018-10-04T02:41:49.726Z,2.80
2018-10-04T02:42:49.702Z,2.30
2018-10-04T02:43:49.674Z,2.20
2018-10-04T02:44:49.652Z,2.80
2018-10-04T02:45:49.636Z,2.60
2018-10-04T02:46:49.615Z,3.60
2018-10-04T02:47:49.637Z,3.20
2018-10-04T02:48:49.736Z,3.00
2018-10-04T02:49:49.549Z,2.50
2018-10-04T02:50:49.532Z,3.70
2018-10-04T02:51:49.504Z,2.90
2018-10-04T02:52:49.486Z,3.30
2018-10-04T02:53:49.465Z,3.50
2018-10-04T02:54:49.442Z,2.40
2018-10-04T02:55:49.419Z,2.70
2018-10-04T02:56:49.398Z,2.00
2018-10-04T02:57:49.378Z,3.10
2018-10-04T02:58:49.364Z,2.30
2018-10-04T02:59:49.334Z,2.40
2018-10-04T03:00:49.317Z,2.30
2018-10-04T03:01:49.292Z,2.50
2018-10-04T03:02:49.271Z,2.10
2018-10-04T03:03:49.250Z,2.20
2018-10-04T03:04:49.240Z,3.20
2018-10-04T03:05:49.211Z,3.20
2018-10-04T03:06:49.192Z,3.90
2018-10-04T03:07:49.169Z,2.50
2018-10-04T03:08:49.141Z,3.40
2018-10-04T03:09:49.128Z,3.30
2018-10-04T03:10:49.100Z,2.20
2018-10-04T03:11:49.078Z,2.00
2018-10-04T03:12:49.059Z,1.80
2018-10-04T03:13:49.045Z,1.60
2018-10-04T03:14:49.013Z,4.00
2018-10-04T03:15:48.996Z,2.60
2018-10-04T03:16:48.974Z,3.10
2018-10-04T03:17:48.950Z,2.00
2018-10-04T03:18:48.947Z,2.00
2018-10-04T03:19:48.914Z,2.50
2018-10-04T03:20:48.885Z,2.30
2018-10-04T03:21:48.867Z,2.80
2018-10-04T03:22:48.849Z,3.40
2018-10-04T03:23:48.819Z,2.50
2018-10-04T03:24:48.803Z,3.40
2018-10-04T03:25:48.783Z,2.10
2018-10-04T03:26:48.777Z,2.30
2018-10-04T03:27:48.739Z,3.30
2018-10-04T03:28:48.717Z,2.20
2018-10-04T03:29:48.697Z,3.70
2018-10-04T03:30:48.678Z,2.90
2018-10-04T03:31:48.651Z,3.80
2018-10-04T03:32:48.633Z,3.40
2018-10-04T03:33:48.615Z,3.40
2018-10-04T03:34:48.589Z,2.70
2018-10-04T03:35:48.566Z,4.50
2018-10-04T03:36:48.547Z,4.20
2018-10-04T03:37:48.521Z,3.10
2018-10-04T03:38:48.500Z,4.60
2018-10-04T03:39:48.479Z,3.30
2018-10-04T03:40:48.460Z,5.00
2018-10-04T03:41:48.439Z,3.00
2018-10-04T03:42:48.417Z,3.80
2018-10-04T03:43:48.391Z,3.10
2018-10-04T03:44:48.375Z,3.40
2018-10-04T03:45:48.356Z,2.30
2018-10-04T03:46:48.329Z,3.40
2018-10-04T03:47:48.313Z,2.40
2018-10-04T03:48:48.286Z,2.70
2018-10-04T03:49:48.268Z,3.00
2018-10-04T03:50:48.242Z,3.00
2018-10-04T03:51:48.221Z,3.10
2018-10-04T03:52:48.199Z,2.40
2018-10-04T03:53:48.178Z,3.40
2018-10-04T03:54:48.157Z,3.10
2018-10-04T03:55:48.133Z,2.20
2018-10-04T03:56:48.115Z,3.50
2018-10-04T03:57:48.097Z,2.20
2018-10-04T03:58:48.071Z,2.50
2018-10-04T03:59:48.051Z,3.10
2018-10-04T04:00:48.029Z,3.40
2018-10-04T04:01:48.009Z,3.70
2018-10-04T04:02:47.983Z,3.50
2018-10-04T04:03:47.989Z,2.70
2018-10-04T04:04:47.942Z,3.30
2018-10-04T04:05:47.921Z,3.90
2018-10-04T04:06:47.911Z,4.20
2018-10-04T04:07:47.888Z,4.10
2018-10-04T04:08:47.857Z,4.20
2018-10-04T04:09:47.833Z,3.50
2018-10-04T04:10:47.811Z,4.40
2018-10-04T04:11:47.891Z,3.80
2018-10-04T04:12:47.771Z,4.50
2018-10-04T04:13:47.749Z,5.30
2018-10-04T04:14:47.727Z,7.20
2018-10-04T04:15:47.703Z,4.10
2018-10-04T04:16:47.691Z,5.30
2018-10-04T04:17:47.665Z,7.80
2018-10-04T04:18:47.640Z,3.20
2018-10-04T04:19:47.621Z,5.50
2018-10-04T04:20:47.600Z,3.70
2018-10-04T04:21:47.593Z,5.70
2018-10-04T04:22:47.575Z,4.50
2018-10-04T04:23:47.536Z,4.70
2018-10-04T04:24:47.514Z,6.90
2018-10-04T04:25:47.495Z,4.50
2018-10-04T04:26:47.464Z,5.90
2018-10-04T04:27:47.449Z,7.50
2018-10-04T04:28:47.440Z,4.00
2018-10-04T04:29:47.411Z,4.00
2018-10-04T04:30:47.455Z,4.70
2018-10-04T04:31:47.377Z,4.80
2018-10-04T04:32:47.356Z,5.70
2018-10-04T04:33:47.319Z,4.40
2018-10-04T04:34:47.298Z,4.90
2018-10-04T04:35:47.276Z,5.80
2018-10-04T04:36:47.260Z,3.90
2018-10-04T04:37:47.234Z,5.20
2018-10-04T04:38:47.214Z,5.10
2018-10-04T04:39:47.192Z,5.10
2018-10-04T04:40:47.260Z,5.40
2018-10-04T04:41:47.147Z,7.40
2018-10-04T04:42:47.123Z,6.40
2018-10-04T04:43:47.104Z,5.60
2018-10-04T04:44:47.081Z,4.00
2018-10-04T04:45:47.066Z,5.70
2018-10-04T04:46:47.093Z,6.60
2018-10-04T04:47:47.022Z,7.60
2018-10-04T04:48:47.001Z,7.50
2018-10-04T04:49:46.979Z,8.70
2018-10-04T04:50:46.952Z,6.70
2018-10-04T04:51:46.934Z,3.90
2018-10-04T04:52:46.983Z,5.70
2018-10-04T04:53:46.890Z,4.90
2018-10-04T04:54:46.873Z,4.20
2018-10-04T04:55:46.846Z,5.20
2018-10-04T04:56:46.828Z,6.50
2018-10-04T04:57:46.816Z,6.60
2018-10-04T04:58:46.791Z,4.40
2018-10-04T04:59:46.760Z,6.30
2018-10-04T05:00:46.754Z,6.30
2018-10-04T05:01:46.721Z,6.80
2018-10-04T05:02:46.702Z,5.00
2018-10-04T05:03:46.684Z,3.70
2018-10-04T05:04:46.658Z,4.50
2018-10-04T05:05:46.641Z,5.20
2018-10-04T05:06:46.621Z,5.00
2018-10-04T05:07:46.591Z,5.70
2018-10-04T05:08:46.584Z,4.00
2018-10-04T05:09:46.554Z,4.50
2018-10-04T05:10:46.528Z,5.70
2018-10-04T05:11:46.510Z,4.00
2018-10-04T05:12:46.490Z,5.90
2018-10-04T05:13:46.464Z,6.30
2018-10-04T05:14:46.446Z,4.60
2018-10-04T05:15:46.468Z,6.60
2018-10-04T05:16:46.408Z,5.60
2018-10-04T05:17:46.380Z,3.80
2018-10-04T05:18:46.361Z,4.90
2018-10-04T05:19:46.339Z,3.10
2018-10-04T05:20:46.316Z,5.40
2018-10-04T05:21:46.305Z,5.30
2018-10-04T05:22:46.280Z,5.90
2018-10-04T05:23:46.264Z,3.60
2018-10-04T05:24:46.234Z,3.90
2018-10-04T05:25:46.212Z,5.50
2018-10-04T05:26:46.187Z,5.20
2018-10-04T05:27:46.222Z,5.60
2018-10-04T05:28:46.148Z,6.00
2018-10-04T05:29:46.136Z,6.40
2018-10-04T05:30:46.115Z,6.00
2018-10-04T05:31:46.087Z,7.60
2018-10-04T05:32:46.062Z,5.90
2018-10-04T05:33:46.044Z,5.60
2018-10-04T05:34:46.028Z,5.90
2018-10-04T05:35:46.006Z,6.60
2018-10-04T05:36:45.980Z,7.50
2018-10-04T05:37:45.960Z,5.30
2018-10-04T05:38:45.935Z,4.90
2018-10-04T05:39:45.915Z,4.80
2018-10-04T05:40:45.894Z,4.90
2018-10-04T05:41:45.871Z,6.00
2018-10-04T05:42:45.852Z,5.70
2018-10-04T05:43:45.828Z,4.90
2018-10-04T05:44:45.816Z,5.60
2018-10-04T05:45:45.788Z,5.90
2018-10-04T05:46:45.768Z,6.00
2018-10-04T05:47:45.747Z,4.80
2018-10-04T05:48:45.725Z,4.90
2018-10-04T05:49:45.708Z,6.00
2018-10-04T05:50:45.682Z,7.40
2018-10-04T05:51:45.662Z,4.60
2018-10-04T05:52:45.707Z,7.40
2018-10-04T05:53:45.632Z,4.50
2018-10-04T05:54:45.599Z,6.70
2018-10-04T05:55:45.578Z,6.70
2018-10-04T05:56:45.564Z,4.70
2018-10-04T05:57:45.538Z,6.00
2018-10-04T05:58:45.515Z,5.80
2018-10-04T05:59:45.497Z,6.50
2018-10-04T06:00:45.478Z,7.20
2018-10-04T06:01:45.458Z,5.50
2018-10-04T06:02:45.434Z,3.90
2018-10-04T06:03:45.416Z,5.70
2018-10-04T06:04:45.441Z,8.50
2018-10-04T06:05:45.366Z,5.80
2018-10-04T06:06:45.354Z,8.70
2018-10-04T06:07:45.328Z,7.20
2018-10-04T06:08:45.308Z,5.50
2018-10-04T06:09:45.288Z,6.30
2018-10-04T06:10:45.264Z,5.70
2018-10-04T06:11:45.244Z,5.90
2018-10-04T06:12:45.226Z,6.30
2018-10-04T06:13:45.203Z,5.30
2018-10-04T06:14:45.184Z,6.00
2018-10-04T06:15:45.166Z,6.90
2018-10-04T06:16:45.142Z,6.10
2018-10-04T06:17:45.126Z,7.10
2018-10-04T06:18:45.154Z,7.30
2018-10-04T06:19:45.080Z,7.10
2018-10-04T06:20:45.058Z,6.40
2018-10-04T06:21:45.049Z,8.80
2018-10-04T06:22:45.022Z,6.70
2018-10-04T06:23:44.995Z,6.50
2018-10-04T06:24:44.979Z,7.00
2018-10-04T06:25:44.953Z,7.30
2018-10-04T06:26:44.936Z,6.40
2018-10-04T06:27:44.915Z,8.40
2018-10-04T06:28:44.907Z,6.50
2018-10-04T06:29:44.874Z,5.60
2018-10-04T06:30:44.857Z,9.60
2018-10-04T06:31:44.833Z,6.90
2018-10-04T06:32:44.812Z,7.60
2018-10-04T06:33:44.804Z,6.70
2018-10-04T06:34:44.772Z,5.90
2018-10-04T06:35:44.754Z,6.50
2018-10-04T06:36:44.732Z,7.60
2018-10-04T06:37:44.713Z,7.20
2018-10-04T06:38:44.690Z,8.20
2018-10-04T06:39:44.672Z,7.90
2018-10-04T06:40:44.651Z,8.70
2018-10-04T06:41:44.630Z,7.80
2018-10-04T06:42:44.606Z,7.90
2018-10-04T06:43:44.591Z,7.70
2018-10-04T06:44:44.568Z,8.30
2018-10-04T06:45:44.552Z,6.80
2018-10-04T06:46:44.529Z,5.90
2018-10-04T06:47:44.509Z,6.90
2018-10-04T06:48:44.489Z,7.10
2018-10-04T06:49:44.468Z,6.10
2018-10-04T06:50:44.448Z,6.40
2018-10-04T06:51:44.432Z,6.90
2018-10-04T06:52:44.412Z,6.00
2018-10-04T06:53:44.391Z,9.70
2018-10-04T06:54:44.371Z,7.70
2018-10-04T06:55:44.401Z,7.40
2018-10-04T06:56:44.332Z,9.10
2018-10-04T06:57:44.360Z,7.50
2018-10-04T06:58:44.294Z,10.50
2018-10-04T06:59:44.273Z,7.60
2018-10-04T07:00:44.275Z,9.90
2018-10-04T07:01:44.228Z,8.10
2018-10-04T07:02:44.206Z,9.40
2018-10-04T07:03:44.213Z,7.50
2018-10-04T07:04:44.170Z,9.40
2018-10-04T07:05:44.157Z,6.00
2018-10-04T07:06:44.128Z,6.80
2018-10-04T07:07:44.110Z,11.30
2018-10-04T07:08:44.088Z,9.20
2018-10-04T07:09:44.074Z,7.90
2018-10-04T07:10:44.052Z,7.70
2018-10-04T07:11:44.034Z,6.80
2018-10-04T07:12:44.010Z,6.60
2018-10-04T07:13:43.990Z,6.50
2018-10-04T07:14:43.970Z,8.10
2018-10-04T07:15:43.965Z,7.40
2018-10-04T07:16:43.936Z,9.70
2018-10-04T07:17:43.910Z,9.00
2018-10-04T07:18:43.899Z,7.40
2018-10-04T07:19:43.870Z,5.70
2018-10-04T07:20:43.860Z,7.20
2018-10-04T07:21:43.839Z,12.60
2018-10-04T07:22:43.813Z,7.90
2018-10-04T07:23:43.799Z,7.70
2018-10-04T07:24:43.772Z,7.30
2018-10-04T07:25:43.759Z,10.10
2018-10-04T07:26:43.738Z,6.80
2018-10-04T07:27:43.719Z,8.00
2018-10-04T07:28:43.700Z,8.40
2018-10-04T07:29:43.679Z,7.70
2018-10-04T07:30:43.658Z,9.60
2018-10-04T07:31:43.751Z,7.30
2018-10-04T07:32:43.618Z,7.40
2018-10-04T07:33:43.606Z,7.60
2018-10-04T07:34:43.597Z,7.30
2018-10-04T07:35:43.566Z,6.70
2018-10-04T07:36:43.551Z,9.00
2018-10-04T07:37:43.523Z,8.60
2018-10-04T07:38:43.510Z,6.10
2018-10-04T07:39:43.484Z,7.90
2018-10-04T07:40:43.471Z,8.30
2018-10-04T07:41:43.447Z,9.10
2018-10-04T07:42:43.529Z,7.30
2018-10-04T07:43:43.408Z,9.40
2018-10-04T07:44:43.396Z,7.90
2018-10-04T07:45:43.372Z,9.60
2018-10-04T07:46:43.352Z,8.60
2018-10-04T07:47:43.328Z,8.80
2018-10-04T07:48:43.310Z,9.60
2018-10-04T07:49:43.295Z,7.00
2018-10-04T07:50:43.276Z,6.10
2018-10-04T07:51:43.262Z,6.10
2018-10-04T07:52:43.240Z,6.70
2018-10-04T07:53:43.220Z,8.80
2018-10-04T07:54:43.196Z,7.10
2018-10-04T07:55:43.182Z,7.60
2018-10-04T07:56:43.178Z,9.20
2018-10-04T07:57:43.143Z,7.20
2018-10-04T07:58:43.126Z,9.70
2018-10-04T07:59:43.109Z,5.20
2018-10-04T08:00:43.088Z,7.20
2018-10-04T08:01:43.076Z,7.30
2018-10-04T08:02:43.054Z,8.00
2018-10-04T08:03:43.033Z,7.30
2018-10-04T08:04:43.020Z,11.10
2018-10-04T08:05:43.035Z,7.80
2018-10-04T08:06:43.219Z,6.40
2018-10-04T08:07:42.962Z,7.10
2018-10-04T08:08:42.942Z,7.80
2018-10-04T08:09:42.927Z,8.00
2018-10-04T08:10:42.910Z,9.40
2018-10-04T08:11:42.888Z,8.90
2018-10-04T08:12:42.875Z,7.80
2018-10-04T08:13:42.855Z,9.30
2018-10-04T08:14:42.841Z,7.30
2018-10-04T08:15:42.822Z,12.40
2018-10-04T08:16:42.801Z,7.70
2018-10-04T08:17:42.790Z,8.60
2018-10-04T08:18:42.769Z,7.60
2018-10-04T08:19:42.747Z,8.20
2018-10-04T08:20:42.730Z,8.20
2018-10-04T08:21:42.716Z,9.90
2018-10-04T08:22:42.706Z,9.40
2018-10-04T08:23:42.684Z,8.20
2018-10-04T08:24:42.667Z,7.30
2018-10-04T08:25:42.646Z,7.00
2018-10-04T08:26:42.628Z,7.60
2018-10-04T08:27:42.723Z,6.80
2018-10-04T08:28:42.597Z,8.10
2018-10-04T08:29:42.575Z,9.10
2018-10-04T08:30:42.558Z,7.00
2018-10-04T08:31:42.549Z,8.60
2018-10-04T08:32:42.527Z,5.40
2018-10-04T08:33:42.510Z,8.00
2018-10-04T08:34:42.490Z,7.50
2018-10-04T08:35:42.487Z,8.30
2018-10-04T08:36:42.461Z,7.60
2018-10-04T08:37:42.441Z,8.70
2018-10-04T08:38:42.441Z,7.60
2018-10-04T08:39:42.410Z,7.00
2018-10-04T08:40:42.392Z,8.10
2018-10-04T08:41:42.374Z,7.60
2018-10-04T08:42:42.358Z,8.20
2018-10-04T08:43:42.348Z,8.00
2018-10-04T08:44:42.323Z,5.50
2018-10-04T08:45:42.315Z,7.30
2018-10-04T08:46:42.295Z,5.90
2018-10-04T08:47:42.283Z,7.90
2018-10-04T08:48:42.263Z,7.00
2018-10-04T08:49:42.247Z,7.00
2018-10-04T08:50:42.234Z,9.10
2018-10-04T08:51:42.216Z,7.70
2018-10-04T08:52:42.208Z,8.40
2018-10-04T08:53:42.181Z,8.30
2018-10-04T08:54:42.174Z,6.20
2018-10-04T08:55:42.161Z,6.50
2018-10-04T08:56:42.145Z,10.30
2018-10-04T08:57:42.122Z,8.20
2018-10-04T08:58:42.105Z,7.90
2018-10-04T08:59:42.212Z,8.30
2018-10-04T09:00:42.078Z,6.60
2018-10-04T09:01:42.059Z,6.70
2018-10-04T09:02:42.040Z,7.70
2018-10-04T09:03:42.028Z,8.40
2018-10-04T09:04:42.014Z,7.60
2018-10-04T09:05:41.997Z,7.10
2018-10-04T09:06:41.982Z,7.60
2018-10-04T09:07:42.023Z,7.80
2018-10-04T09:08:41.946Z,6.00
2018-10-04T09:09:41.936Z,7.30
2018-10-04T09:10:41.920Z,8.00
2018-10-04T09:11:41.900Z,6.60
2018-10-04T09:12:41.886Z,8.00
2018-10-04T09:13:41.872Z,8.40
2018-10-04T09:14:41.863Z,6.60
2018-10-04T09:15:41.841Z,8.00
2018-10-04T09:16:41.824Z,6.20
2018-10-04T09:17:41.807Z,7.10
2018-10-04T09:18:41.794Z,9.20
2018-10-04T09:19:41.774Z,7.30
2018-10-04T09:20:41.757Z,7.30
2018-10-04T09:21:41.742Z,7.60
2018-10-04T09:22:41.730Z,7.60
2018-10-04T09:23:41.709Z,7.40
2018-10-04T09:24:41.692Z,7.90
2018-10-04T09:25:41.681Z,7.10
2018-10-04T09:26:41.667Z,6.40
2018-10-04T09:27:41.644Z,9.30
2018-10-04T09:28:41.630Z,6.70
2018-10-04T09:29:41.623Z,6.10
2018-10-04T09:30:41.600Z,7.70
2018-10-04T09:31:41.583Z,7.70
2018-10-04T09:32:41.565Z,7.60
2018-10-04T09:33:41.550Z,8.50
2018-10-04T09:34:41.531Z,6.70
2018-10-04T09:35:41.521Z,8.30
2018-10-04T09:36:41.504Z,6.60
2018-10-04T09:37:41.497Z,7.70
2018-10-04T09:38:41.474Z,9.20
2018-10-04T09:39:41.454Z,9.50
2018-10-04T09:40:41.441Z,8.40
2018-10-04T09:41:41.425Z,8.00
2018-10-04T09:42:41.412Z,6.40
2018-10-04T09:43:41.404Z,7.50
2018-10-04T09:44:41.379Z,6.90
2018-10-04T09:45:41.369Z,6.70
2018-10-04T09:46:41.342Z,6.50
2018-10-04T09:47:41.328Z,8.00
2018-10-04T09:48:41.393Z,6.10
2018-10-04T09:49:41.298Z,6.00
2018-10-04T09:50:41.279Z,4.90
2018-10-04T09:51:41.265Z,4.60
2018-10-04T09:52:41.252Z,6.70
2018-10-04T09:53:41.293Z,7.70
2018-10-04T09:54:41.213Z,5.60
2018-10-04T09:55:41.198Z,7.00
2018-10-04T09:56:41.183Z,7.30
2018-10-04T09:57:41.172Z,5.00
2018-10-04T09:58:41.153Z,7.60
2018-10-04T09:59:41.182Z,6.30
2018-10-04T10:00:41.125Z,6.30
2018-10-04T10:01:41.109Z,6.60
2018-10-04T10:02:41.091Z,5.40
2018-10-04T10:03:41.075Z,6.10
2018-10-04T10:04:41.059Z,6.00
2018-10-04T10:05:41.050Z,5.20
2018-10-04T10:06:41.027Z,6.80
2018-10-04T10:07:41.009Z,7.30
2018-10-04T10:08:40.997Z,4.90
2018-10-04T10:09:40.975Z,6.80
2018-10-04T10:10:40.961Z,5.30
2018-10-04T10:11:40.984Z,6.60
2018-10-04T10:12:40.928Z,6.50
2018-10-04T10:13:40.913Z,7.00
2018-10-04T10:14:40.894Z,7.30
2018-10-04T10:15:40.877Z,6.10
2018-10-04T10:16:40.868Z,7.30
2018-10-04T10:17:40.849Z,7.10
2018-10-04T10:18:40.831Z,5.70
2018-10-04T10:19:40.815Z,5.10
2018-10-04T10:20:40.801Z,5.50
2018-10-04T10:21:40.783Z,4.10
2018-10-04T10:22:40.768Z,7.00
2018-10-04T10:23:40.753Z,5.50
2018-10-04T10:24:40.732Z,5.80
2018-10-04T10:25:40.715Z,6.00
2018-10-04T10:26:40.700Z,7.30
2018-10-04T10:27:40.685Z,6.40
2018-10-04T10:28:40.668Z,6.60
2018-10-04T10:29:40.650Z,5.30
2018-10-04T10:30:40.634Z,6.80
2018-10-04T10:31:40.627Z,8.10
2018-10-04T10:32:40.612Z,6.90
2018-10-04T10:33:40.588Z,6.60
2018-10-04T10:34:40.684Z,6.20
2018-10-04T10:35:40.561Z,5.50
2018-10-04T10:36:40.543Z,6.80
2018-10-04T10:37:40.523Z,5.40
2018-10-04T10:38:40.507Z,8.30
2018-10-04T10:39:40.494Z,6.80
2018-10-04T10:40:40.479Z,6.80
2018-10-04T10:41:40.463Z,5.90
2018-10-04T10:42:40.442Z,5.80
2018-10-04T10:43:40.430Z,5.90
2018-10-04T10:44:40.418Z,6.90
2018-10-04T10:45:40.397Z,8.20
2018-10-04T10:46:40.378Z,8.60
2018-10-04T10:47:40.367Z,6.90
2018-10-04T10:48:40.348Z,6.60
2018-10-04T10:49:40.333Z,8.00
2018-10-04T10:50:40.315Z,5.70
2018-10-04T10:51:40.298Z,8.00
2018-10-04T10:52:40.284Z,6.20
2018-10-04T10:53:40.269Z,6.40
2018-10-04T10:54:40.249Z,7.10
2018-10-04T10:55:40.237Z,6.40
2018-10-04T10:56:40.219Z,5.70
2018-10-04T10:57:40.199Z,5.80
2018-10-04T10:58:40.184Z,8.20
2018-10-04T10:59:40.165Z,5.10
2018-10-04T11:00:40.152Z,6.50
2018-10-04T11:01:40.135Z,8.00
2018-10-04T11:02:40.117Z,6.60
2018-10-04T11:03:40.103Z,5.40
2018-10-04T11:04:40.087Z,7.60
2018-10-04T11:05:40.067Z,7.50
2018-10-04T11:06:40.055Z,6.80
2018-10-04T11:07:40.038Z,7.40
2018-10-04T11:08:40.020Z,8.20
2018-10-04T11:09:40.006Z,8.20
2018-10-04T11:10:39.990Z,8.00
2018-10-04T11:11:39.970Z,8.60
2018-10-04T11:12:39.952Z,7.10
2018-10-04T11:13:39.935Z,7.30
2018-10-04T11:14:39.924Z,7.40
2018-10-04T11:15:39.903Z,9.30
2018-10-04T11:16:39.890Z,7.90
2018-10-04T11:17:39.923Z,8.50
2018-10-04T11:18:39.856Z,9.10
2018-10-04T11:19:39.839Z,7.90
2018-10-04T11:20:39.822Z,7.70
2018-10-04T11:21:39.806Z,10.90
2018-10-04T11:22:39.790Z,9.30
2018-10-04T11:23:39.771Z,8.90
2018-10-04T11:24:39.757Z,8.90
2018-10-04T11:25:39.739Z,10.10
2018-10-04T11:26:39.722Z,7.00
2018-10-04T11:27:39.707Z,8.50
2018-10-04T11:28:39.697Z,8.20
2018-10-04T11:29:39.677Z,7.40
2018-10-04T11:30:39.656Z,6.80
2018-10-04T11:31:39.642Z,9.20
2018-10-04T11:32:39.628Z,7.80
2018-10-04T11:33:39.613Z,7.20
2018-10-04T11:34:39.594Z,7.20
2018-10-04T11:35:39.579Z,7.70
2018-10-04T11:36:39.569Z,8.90
2018-10-04T11:37:39.544Z,7.40
2018-10-04T11:38:39.523Z,8.60
2018-10-04T11:39:39.514Z,7.50
2018-10-04T11:40:39.494Z,6.20
2018-10-04T11:41:39.476Z,9.10
2018-10-04T11:42:39.456Z,6.70
2018-10-04T11:43:39.440Z,6.10
2018-10-04T11:44:39.430Z,7.90
2018-10-04T11:45:39.413Z,6.80
2018-10-04T11:46:39.390Z,5.40
2018-10-04T11:47:39.374Z,7.00
2018-10-04T11:48:39.388Z,7.00
2018-10-04T11:49:39.344Z,8.30
2018-10-04T11:50:39.322Z,6.80
2018-10-04T11:51:39.305Z,5.90
2018-10-04T11:52:39.294Z,7.70
2018-10-04T11:53:39.273Z,8.20
2018-10-04T11:54:39.272Z,8.10
2018-10-04T11:55:39.239Z,6.20
2018-10-04T11:56:39.283Z,5.40
2018-10-04T11:57:39.213Z,6.80
2018-10-04T11:58:39.190Z,7.00
2018-10-04T11:59:39.175Z,8.00
2018-10-04T12:00:39.157Z,8.30
2018-10-04T12:01:39.200Z,6.20
2018-10-04T12:02:39.222Z,6.90
2018-10-04T12:03:39.122Z,5.80
2018-10-04T12:04:39.092Z,7.80
2018-10-04T12:05:39.071Z,9.10
2018-10-04T12:06:39.122Z,7.60
2018-10-04T12:07:39.046Z,7.60
2018-10-04T12:08:39.023Z,6.10
2018-10-04T12:09:39.010Z,4.30
2018-10-04T12:10:38.985Z,4.10
2018-10-04T12:11:38.969Z,6.50
2018-10-04T12:12:38.976Z,5.90
2018-10-04T12:13:38.937Z,6.40
2018-10-04T12:14:38.923Z,7.80
2018-10-04T12:15:38.907Z,7.90
2018-10-04T12:16:38.899Z,5.50
2018-10-04T12:17:38.871Z,5.50
2018-10-04T12:18:38.990Z,5.00
2018-10-04T12:19:38.837Z,5.40
2018-10-04T12:20:38.822Z,7.30
2018-10-04T12:21:38.806Z,7.90
2018-10-04T12:22:38.782Z,4.00
2018-10-04T12:23:38.768Z,6.20
2018-10-04T12:24:38.803Z,5.30
2018-10-04T12:25:38.736Z,6.90
2018-10-04T12:26:38.720Z,5.80
2018-10-04T12:27:38.700Z,6.70
2018-10-04T12:28:38.690Z,5.40
2018-10-04T12:29:38.668Z,5.60
2018-10-04T12:30:38.718Z,5.50
2018-10-04T12:31:38.639Z,5.10
2018-10-04T12:32:38.622Z,5.70
2018-10-04T12:33:38.610Z,5.90
2018-10-04T12:34:38.585Z,5.70
2018-10-04T12:35:38.577Z,5.80
2018-10-04T12:36:38.554Z,6.60
2018-10-04T12:37:38.607Z,6.40
2018-10-04T12:38:38.519Z,5.50
2018-10-04T12:39:38.508Z,4.90
2018-10-04T12:40:38.490Z,4.20
2018-10-04T12:41:38.474Z,5.30
2018-10-04T12:42:38.456Z,6.50
2018-10-04T12:43:38.444Z,6.60
2018-10-04T12:44:38.420Z,5.30
2018-10-04T12:45:38.406Z,6.40
2018-10-04T12:46:38.390Z,6.60
2018-10-04T12:47:38.380Z,3.80
2018-10-04T12:48:38.366Z,5.50
2018-10-04T12:49:38.344Z,3.70
2018-10-04T12:50:38.324Z,4.50
2018-10-04T12:51:38.315Z,5.10
2018-10-04T12:52:38.314Z,5.40
2018-10-04T12:53:38.278Z,6.10
2018-10-04T12:54:38.262Z,5.00
2018-10-04T12:55:38.245Z,6.60
2018-10-04T12:56:38.232Z,6.80
2018-10-04T12:57:38.216Z,4.60
2018-10-04T12:58:38.199Z,5.90
2018-10-04T12:59:38.184Z,5.00
2018-10-04T13:00:38.167Z,6.20
2018-10-04T13:01:38.151Z,6.50
2018-10-04T13:02:38.128Z,4.60
2018-10-04T13:03:38.115Z,5.10
2018-10-04T13:04:38.101Z,6.70
2018-10-04T13:05:38.088Z,5.10
2018-10-04T13:06:38.102Z,7.30
2018-10-04T13:07:38.050Z,6.30
2018-10-04T13:08:38.085Z,6.60
2018-10-04T13:09:38.023Z,6.70
2018-10-04T13:10:38.004Z,8.30
2018-10-04T13:11:37.990Z,7.80
2018-10-04T13:12:37.968Z,5.40
2018-10-04T13:13:37.960Z,7.10
2018-10-04T13:14:37.937Z,6.60
2018-10-04T13:15:37.927Z,6.90
2018-10-04T13:16:37.910Z,6.70
2018-10-04T13:17:37.893Z,6.10
2018-10-04T13:18:37.872Z,7.40